Time;durP1;ratioP1;P1;durP2;ratioP2;P2;SDS_P1;SDS_P2;PMS_P1;PMS_P2;Temp;Humidity;BMP_temperature;BMP_pressure;BME280_temperature;BME280_humidity;BME280_pressure;Samples;Min_cycle;Max_cycle;Signal;HPM_P1;HPM_P2
2022/02/28 00:05:29;;;;;;;2.67;1.48;;;8.50;67.60;;;;;;20709631;28;20451;-70
2022/02/28 00:15:29;;;;;;;2.25;1.35;;;8.50;67.60;;;;;;20727759;28;20038;-70
2022/02/28 00:25:30;;;;;;;3.00;1.58;;;8.50;67.60;;;;;;20746253;28;20041;-71
2022/02/28 00:35:31;;;;;;;5.68;1.73;;;8.50;67.60;;;;;;20743258;28;20072;-70
2022/02/28 00:45:35;;;;;;;3.75;1.70;;;8.50;67.50;;;;;;20695764;28;20493;-70
2022/02/28 00:55:35;;;;;;;3.55;1.92;;;8.50;67.50;;;;;;20726379;28;20140;-69
2022/02/28 01:05:36;;;;;;;3.75;1.88;;;8.50;67.40;;;;;;20710633;28;20029;-70
2022/02/28 01:15:37;;;;;;;4.45;2.05;;;8.50;67.40;;;;;;20741894;28;20381;-71
2022/02/28 01:25:38;;;;;;;4.00;2.00;;;8.50;67.40;;;;;;20726081;28;20049;-70
2022/02/28 01:35:39;;;;;;;3.72;1.77;;;8.50;67.30;;;;;;20741654;28;20030;-70
2022/02/28 01:45:39;;;;;;;4.63;2.40;;;8.50;67.30;;;;;;20732218;28;20053;-70
2022/02/28 01:55:40;;;;;;;3.80;1.70;;;8.40;67.20;;;;;;20707733;28;20044;-72
2022/02/28 02:05:40;;;;;;;6.40;2.73;;;8.40;67.80;;;;;;20739519;28;20041;-71
2022/02/28 02:15:41;;;;;;;3.40;2.10;;;8.40;67.10;;;;;;20697286;28;20701;-71
2022/02/28 02:25:43;;;;;;;3.85;2.00;;;8.40;67.10;;;;;;20705596;28;20125;-70
2022/02/28 02:35:57;;;;;;;4.53;2.10;;;8.40;67.10;;;;;;20721589;28;20038;-71
2022/02/28 02:45:58;;;;;;;4.47;2.33;;;8.40;67.10;;;;;;20735483;28;20042;-71
2022/02/28 02:55:59;;;;;;;5.47;2.50;;;8.40;67.10;;;;;;20734398;28;20401;-70
2022/02/28 03:06:01;;;;;;;8.20;2.88;;;8.40;67.10;;;;;;20735133;28;20052;-72
2022/02/28 03:16:04;;;;;;;4.20;2.28;;;8.40;67.10;;;;;;20717845;28;20034;-70
2022/02/28 03:26:07;;;;;;;4.95;2.50;;;8.40;67.10;;;;;;20733382;28;20400;-70
2022/02/28 03:36:08;;;;;;;5.10;2.38;;;8.40;67.10;;;;;;20715503;28;20084;-70
2022/02/28 03:46:13;;;;;;;3.60;2.20;;;8.40;67.10;;;;;;20731251;28;20125;-70
2022/02/28 03:56:34;;;;;;;5.85;2.58;;;8.40;67.00;;;;;;20713575;28;20080;-70
2022/02/28 04:06:35;;;;;;;4.68;2.72;;;8.40;67.00;;;;;;20729263;28;20057;-70
2022/02/28 04:16:36;;;;;;;5.10;2.67;;;8.40;66.90;;;;;;20696654;28;20486;-71
2022/02/28 04:27:15;;;;;;;;;;;8.50;66.90;;;;;;20745137;28;20100;-71
2022/02/28 04:37:16;;;;;;;5.72;2.38;;;8.50;66.80;;;;;;20725748;28;20361;-72
2022/02/28 04:47:16;;;;;;;5.03;2.70;;;8.50;66.70;;;;;;20727412;28;20030;-73
2022/02/28 04:57:38;;;;;;;4.38;2.55;;;8.40;66.70;;;;;;20728871;28;20748;-70
2022/02/28 05:07:40;;;;;;;5.25;2.53;;;8.40;66.80;;;;;;20710653;28;20070;-70
2022/02/28 05:17:41;;;;;;;7.28;5.60;;;8.40;66.80;;;;;;20746431;28;20044;-70
2022/02/28 05:27:43;;;;;;;5.20;3.20;;;8.50;66.80;;;;;;20742218;28;20034;-71
2022/02/28 05:37:44;;;;;;;5.90;2.53;;;8.60;66.50;;;;;;20709544;28;20350;-70
2022/02/28 05:47:46;;;;;;;5.53;2.88;;;8.60;66.30;;;;;;20754194;28;20053;-76
2022/02/28 05:57:48;;;;;;;5.75;2.85;;;8.80;66.10;;;;;;20723845;28;20091;-71
2022/02/28 06:07:49;;;;;;;5.55;3.05;;;9.00;65.70;;;;;;20722750;28;20033;-72
2022/02/28 06:17:49;;;;;;;5.90;2.83;;;9.10;65.20;;;;;;20736254;28;20030;-73
2022/02/28 06:27:53;;;;;;;5.68;3.00;;;9.10;64.90;;;;;;20716990;28;20053;-73
2022/02/28 06:37:54;;;;;;;5.13;2.85;;;9.00;65.00;;;;;;20750837;28;20026;-79
2022/02/28 06:47:55;;;;;;;6.15;3.38;;;8.90;65.20;;;;;;20716373;28;20041;-76
2022/02/28 06:57:56;;;;;;;8.60;3.28;;;8.80;65.40;;;;;;20735709;28;20030;-74
2022/02/28 07:07:57;;;;;;;7.50;3.65;;;8.70;65.50;;;;;;20734008;28;20033;-76
2022/02/28 07:18:00;;;;;;;6.55;3.47;;;8.60;65.70;;;;;;20701127;28;20041;-75
2022/02/28 07:28:00;;;;;;;5.25;3.22;;;8.60;65.90;;;;;;20717092;28;20048;-75
2022/02/28 07:38:01;;;;;;;7.78;3.88;;;8.50;66.00;;;;;;20714067;28;20034;-77
2022/02/28 07:48:02;;;;;;;7.00;3.90;;;8.50;66.10;;;;;;20730103;28;20696;-78
2022/02/28 07:58:02;;;;;;;7.57;3.28;;;8.50;66.20;;;;;;20719106;28;20038;-79
2022/02/28 08:08:03;;;;;;;7.25;3.85;;;8.40;66.90;;;;;;20752295;28;20041;-79
2022/02/28 08:18:04;;;;;;;7.50;3.28;;;8.40;66.30;;;;;;20708860;28;20046;-79
2022/02/28 08:28:04;;;;;;;7.72;3.40;;;8.40;66.50;;;;;;20743482;28;20088;-79
2022/02/28 08:38:05;;;;;;;7.03;3.75;;;8.40;66.50;;;;;;20693681;28;20061;-79
2022/02/28 08:48:06;;;;;;;8.13;3.95;;;8.40;66.70;;;;;;20691527;28;20037;-78
2022/02/28 08:58:06;;;;;;;6.37;3.40;;;8.40;67.40;;;;;;20723212;28;20022;-78
2022/02/28 09:08:07;;;;;;;7.43;4.18;;;8.30;66.80;;;;;;20740620;28;20757;-79
2022/02/28 09:18:07;;;;;;;6.35;3.55;;;8.30;66.90;;;;;;20691773;28;20045;-80
2022/02/28 09:28:09;;;;;;;7.25;3.92;;;8.30;67.60;;;;;;20690577;28;20030;-79
2022/02/28 09:38:10;;;;;;;7.18;3.67;;;8.30;67.00;;;;;;20721179;28;20401;-78
2022/02/28 09:48:11;;;;;;;6.13;3.72;;;8.30;67.00;;;;;;20689738;28;20046;-80
2022/02/28 09:58:30;;;;;;;6.82;3.38;;;8.30;67.10;;;;;;20727311;28;20033;-79
2022/02/28 10:08:42;;;;;;;7.60;3.53;;;8.30;67.20;;;;;;20702022;28;20069;-81
2022/02/28 10:18:43;;;;;;;6.22;3.33;;;8.30;67.20;;;;;;20738228;28;20038;-79
2022/02/28 10:28:44;;;;;;;8.10;4.07;;;8.30;67.30;;;;;;20719701;28;20033;-84
2022/02/28 10:39:07;;;;;;;6.20;3.55;;;8.30;67.30;;;;;;20738783;28;20121;-80
2022/02/28 10:49:21;;;;;;;7.68;3.95;;;8.30;67.30;;;;;;20735189;28;20394;-78
2022/02/28 10:59:24;;;;;;;6.65;3.72;;;8.30;67.30;;;;;;20716475;28;20176;-81
2022/02/28 11:09:29;;;;;;;9.07;4.43;;;8.30;67.40;;;;;;20720085;28;20084;-84
2022/02/28 11:19:30;;;;;;;7.38;3.85;;;8.30;67.30;;;;;;20719092;28;20034;-81
2022/02/28 11:29:30;;;;;;;9.05;4.97;;;8.40;67.20;;;;;;21113251;22;20107;-83
2022/02/28 11:39:32;;;;;;;7.15;3.88;;;8.50;67.60;;;;;;20625290;28;20449;-76
2022/02/28 11:49:43;;;;;;;8.23;4.25;;;8.50;66.70;;;;;;20637118;28;20069;-78
2022/02/28 11:59:43;;;;;;;7.43;4.22;;;8.50;66.80;;;;;;20700071;28;20042;-79
2022/02/28 12:09:45;;;;;;;9.23;4.95;;;8.50;66.90;;;;;;20710074;28;20494;-77
2022/02/28 12:19:48;;;;;;;9.05;4.47;;;8.50;66.90;;;;;;20729882;28;20046;-77
2022/02/28 12:29:48;;;;;;;10.23;3.33;;;8.40;67.00;;;;;;20693735;28;20056;-76
2022/02/28 12:39:52;;;;;;;6.38;3.65;;;8.40;67.00;;;;;;20727570;28;20096;-78
2022/02/28 12:49:53;;;;;;;5.80;3.28;;;8.40;67.10;;;;;;20725960;28;20398;-77
2022/02/28 12:59:57;;;;;;;6.20;3.28;;;8.40;67.10;;;;;;20694309;28;20080;-77
2022/02/28 13:09:58;;;;;;;6.10;2.95;;;8.40;67.10;;;;;;20729231;28;20458;-78
2022/02/28 13:20:05;;;;;;;8.50;4.10;;;8.40;67.10;;;;;;20698321;28;20057;-79
2022/02/28 13:30:06;;;;;;;6.13;3.47;;;8.40;67.20;;;;;;20756372;28;20296;-82
2022/02/28 13:40:08;;;;;;;7.43;3.45;;;8.40;67.20;;;;;;20797289;28;20107;-80
2022/02/28 13:50:09;;;;;;;6.90;3.20;;;8.40;67.20;;;;;;20806523;28;20071;-79
2022/02/28 14:00:25;;;;;;;7.53;3.05;;;8.30;67.20;;;;;;20735588;28;20516;-79
2022/02/28 14:10:30;;;;;;;6.80;3.75;;;8.30;67.30;;;;;;20738506;28;20045;-81
2022/02/28 14:20:36;;;;;;;5.88;3.28;;;8.30;67.30;;;;;;20736554;28;20132;-76
2022/02/28 14:31:01;;;;;;;6.78;4.00;;;8.30;67.30;;;;;;20740861;28;20442;-77
2022/02/28 14:41:06;;;;;;;7.13;3.63;;;8.40;67.30;;;;;;20718771;28;20437;-71
2022/02/28 14:51:07;;;;;;;8.55;3.83;;;8.40;67.30;;;;;;20701564;28;20492;-72
2022/02/28 15:01:08;;;;;;;5.78;3.08;;;8.40;67.30;;;;;;20733142;28;20034;-72
2022/02/28 15:11:08;;;;;;;5.85;2.63;;;8.40;67.20;;;;;;20715279;28;20470;-73
2022/02/28 15:21:09;;;;;;;9.80;4.07;;;8.50;67.20;;;;;;20728014;28;20301;-72
2022/02/28 15:31:11;;;;;;;7.70;3.55;;;8.50;66.90;;;;;;20731873;28;20541;-73
2022/02/28 15:41:12;;;;;;;12.20;4.07;;;8.60;66.70;;;;;;20730002;28;20042;-71
2022/02/28 15:51:12;;;;;;;11.07;4.63;;;8.70;66.30;;;;;;20729738;28;20107;-71
2022/02/28 16:01:13;;;;;;;6.72;3.60;;;8.90;65.70;;;;;;20741651;28;20375;-72
2022/02/28 16:11:14;;;;;;;9.48;4.40;;;9.00;65.20;;;;;;20710991;28;20417;-72
2022/02/28 16:21:14;;;;;;;9.43;4.35;;;9.20;64.80;;;;;;20694560;28;20559;-72
2022/02/28 16:31:16;;;;;;;11.20;4.47;;;9.40;64.30;;;;;;20722196;28;20033;-76
2022/02/28 16:41:17;;;;;;;10.63;4.60;;;9.50;63.90;;;;;;20710283;28;20081;-74
2022/02/28 16:51:18;;;;;;;6.88;3.28;;;9.50;63.70;;;;;;20709252;28;20084;-74
2022/02/28 17:01:18;;;;;;;8.75;3.92;;;9.30;63.90;;;;;;20720660;28;20120;-75
2022/02/28 17:11:20;;;;;;;8.25;3.85;;;9.20;64.20;;;;;;20713362;28;20128;-71
2022/02/28 17:21:20;;;;;;;6.18;3.53;;;9.00;64.60;;;;;;20738500;28;20053;-79
2022/02/28 17:31:21;;;;;;;8.35;3.65;;;8.90;65.00;;;;;;20756631;28;20401;-74
2022/02/28 17:41:21;;;;;;;6.60;3.03;;;8.80;65.20;;;;;;20736109;28;20042;-77
2022/02/28 17:51:22;;;;;;;6.22;3.50;;;8.70;65.40;;;;;;20788498;28;20473;-74
2022/02/28 18:01:23;;;;;;;7.50;3.70;;;8.60;65.70;;;;;;20753544;28;20495;-74
2022/02/28 18:11:23;;;;;;;7.18;3.55;;;8.60;65.90;;;;;;20781018;28;20030;-74
2022/02/28 18:21:24;;;;;;;6.13;3.05;;;8.60;66.10;;;;;;20767693;28;20536;-76
2022/02/28 18:31:24;;;;;;;11.27;3.58;;;8.50;66.20;;;;;;20728341;28;20061;-76
2022/02/28 18:41:25;;;;;;;8.00;3.10;;;8.50;66.30;;;;;;20756325;28;20383;-75
2022/02/28 18:51:26;;;;;;;9.13;3.38;;;8.50;66.30;;;;;;20737072;28;20029;-74
2022/02/28 19:01:26;;;;;;;6.75;3.20;;;8.60;66.50;;;;;;20795350;28;20512;-74
2022/02/28 19:11:27;;;;;;;7.60;3.40;;;8.40;66.50;;;;;;20803162;28;20021;-74
2022/02/28 19:21:27;;;;;;;7.03;3.20;;;8.30;66.40;;;;;;20784145;28;20296;-74
2022/02/28 19:31:28;;;;;;;5.82;3.08;;;8.40;66.60;;;;;;20798572;28;20037;-74
2022/02/28 19:41:29;;;;;;;7.13;3.58;;;8.30;66.60;;;;;;20780990;28;20103;-73
2022/02/28 19:51:29;;;;;;;6.07;3.50;;;8.30;66.70;;;;;;20812892;28;20076;-74
2022/02/28 20:01:30;;;;;;;7.90;4.05;;;8.30;66.70;;;;;;20779632;28;20048;-80
2022/02/28 20:11:31;;;;;;;6.57;3.42;;;8.40;66.80;;;;;;20779841;28;20040;-78
2022/02/28 20:21:31;;;;;;;8.07;3.60;;;8.30;66.70;;;;;;20760561;28;20132;-77
2022/02/28 20:31:32;;;;;;;7.97;3.42;;;8.40;66.70;;;;;;20809572;28;20033;-74
2022/02/28 20:41:32;;;;;;;7.27;3.50;;;8.40;66.70;;;;;;20792709;28;20747;-74
2022/02/28 20:51:33;;;;;;;7.18;3.35;;;8.30;66.70;;;;;;20824758;28;20292;-75
2022/02/28 21:01:34;;;;;;;6.85;3.58;;;8.40;66.70;;;;;;20788171;28;20124;-75
2022/02/28 21:11:34;;;;;;;7.57;3.78;;;8.30;66.70;;;;;;20775535;28;20367;-75
2022/02/28 21:21:35;;;;;;;5.78;3.33;;;8.30;66.70;;;;;;20775001;28;20072;-75
2022/02/28 21:31:35;;;;;;;6.97;3.53;;;8.30;66.70;;;;;;20790777;28;20038;-75
2022/02/28 21:41:36;;;;;;;8.43;3.60;;;8.30;66.70;;;;;;20773158;28;20041;-74
2022/02/28 21:51:40;;;;;;;6.28;4.03;;;8.30;66.70;;;;;;20790209;28;20025;-75
2022/02/28 22:01:41;;;;;;;10.82;3.55;;;8.30;66.70;;;;;;20810836;28;20036;-76
2022/02/28 22:11:41;;;;;;;6.95;3.30;;;8.30;66.70;;;;;;20819680;28;20037;-75
2022/02/28 22:21:42;;;;;;;7.13;3.42;;;8.30;66.60;;;;;;20818954;28;20398;-75
2022/02/28 22:31:42;;;;;;;5.32;3.17;;;8.30;66.60;;;;;;20785129;28;20458;-76
2022/02/28 22:41:43;;;;;;;5.00;2.63;;;8.30;66.50;;;;;;20800896;28;20448;-76
2022/02/28 22:51:43;;;;;;;6.38;3.15;;;8.30;66.60;;;;;;20784698;28;20481;-74
2022/02/28 23:01:44;;;;;;;5.68;3.00;;;8.20;66.50;;;;;;20767039;28;20556;-75
2022/02/28 23:22:04;;;;;;;8.13;3.22;;;8.20;66.50;;;;;;20700018;28;20129;-76
2022/02/28 23:32:05;;;;;;;8.05;3.53;;;8.20;66.50;;;;;;20732253;28;20123;-76
2022/02/28 23:42:05;;;;;;;6.20;3.40;;;8.20;66.50;;;;;;20715671;28;20069;-75
2022/02/28 23:52:06;;;;;;;7.25;3.03;;;8.20;66.40;;;;;;20697625;28;20379;-76
